Airfield :
LOGIN :

Register | Disclaimer

   EN    FR    IT 

 










Legend :    VFR   Marginal VFR   IFR   Intensive IFR   Very Intensive IFR
Visi :
Ceiling :
>= 8 km
>= 3000ft
5 to 8 km
1000 to 3000 ft
1500m to 5 km
500 to 1000 ft
800 to 1500m
200 to 500 ft
< 800m
< 200 ft
Symbols :   Thunderstorms  Fog  Heavy snow  Heavy precipitations  Wind > 20 kt
SIGMETs :     Misc.  Thunderstorms  Icing  Turbulence  Mountain Waves  Volcanic Ashes







- Airport Elevation : 1470 ft
- IATA code : KLU


LOWK - Klagenfurt

CURRENT METAR :
  • 171420Z VRB02KT 9999 FEW040 BKN060 M03/M06 Q1025 R10L/19//95 NOSIG

EXPIRED METARs :
  • 171350Z VRB02KT 9999 FEW040 BKN060 M03/M07 Q1024 R10L/19//95 NOSIG
  • 171320Z VRB01KT 9999 FEW050 BKN090 M03/M07 Q1024 R10L/19//95 NOSIG
  • 171250Z VRB02KT 9999 FEW050 BKN090 M03/M07 Q1024 R10L/19//95 NOSIG
  • 171220Z VRB01KT 9999 FEW050 BKN090 M03/M07 Q1024 R10L/19//95 NOSIG
  • 171150Z VRB01KT 9999 FEW050 BKN090 M03/M06 Q1024 R10L/19//95 NOSIG

TAF TAF LOWK
Valid from the 17 at 12:00 until the 18 at 12:00 UTC


171115Z 1712/1812 VRB02KT 9999 FEW050 SCT090 TXM02/1714Z TNM14/1806Z
TEMPO 1713/1716 03008KT
PROB30
TEMPO 1804/1809 1200 FZBCFG SCT002
No reported NOTAMs for that airfield.



MET'MAP, your aeronautical weather chart ! - Copyright ORBIFLY December 2007 - Disclaimer

ORBIFLY MET'MAP TEAM :

Programming & Development : Alexandra Zaïnal
Concept & Development : Baudouin d'Aumeries
Co-Development & Prog : Marc-Olivier Méhu
Technical & hardware support : Manuel Goepfert

Contact : metmap@orbifly.com




SOURCES & CREDITS :

   NOAA